Time;durP1;ratioP1;P1;durP2;ratioP2;P2;SDS_P1;SDS_P2;PMS_P1;PMS_P2;Temp;Humidity;BMP_temperature;BMP_pressure;BME280_temperature;BME280_humidity;BME280_pressure;Samples;Min_cycle;Max_cycle;Signal;HPM_P1;HPM_P2
2022/04/23 00:01:10;;;;;;;11.20;8.70;;;12.20;99.90;;;;;;5033930;28;20049;-67
2022/04/23 00:03:36;;;;;;;12.88;8.15;;;12.20;99.90;;;;;;5034207;28;20064;-67
2022/04/23 00:06:02;;;;;;;17.67;8.38;;;12.20;99.90;;;;;;5034251;28;20037;-67
2022/04/23 00:08:28;;;;;;;14.38;9.43;;;12.20;99.90;;;;;;5034277;28;20415;-67
2022/04/23 00:10:53;;;;;;;14.35;8.75;;;12.20;99.90;;;;;;5033951;28;20056;-67
2022/04/23 00:13:20;;;;;;;14.50;7.82;;;12.10;99.90;;;;;;5034052;28;20572;-67
2022/04/23 00:15:45;;;;;;;11.55;7.65;;;12.10;99.90;;;;;;5033746;28;20503;-67
2022/04/23 00:18:11;;;;;;;10.68;7.13;;;12.00;99.90;;;;;;5033923;28;20087;-67
2022/04/23 00:20:38;;;;;;;13.30;7.60;;;11.90;99.90;;;;;;5033743;28;20050;-67
2022/04/23 00:23:05;;;;;;;11.27;7.13;;;11.90;99.90;;;;;;5034056;28;20033;-67
2022/04/23 00:25:40;;;;;;;13.00;7.72;;;11.80;99.90;;;;;;5034049;28;20041;-67
2022/04/23 00:28:07;;;;;;;12.02;7.82;;;11.70;99.90;;;;;;5033926;28;20038;-67
2022/04/23 00:30:33;;;;;;;11.02;8.02;;;11.60;99.90;;;;;;5033444;28;20037;-67
2022/04/23 00:33:03;;;;;;;15.32;8.20;;;11.60;99.90;;;;;;5033882;28;20041;-67
2022/04/23 00:35:29;;;;;;;12.68;8.35;;;11.50;99.90;;;;;;5033286;28;20045;-67
2022/04/23 00:37:55;;;;;;;11.65;7.63;;;11.30;99.90;;;;;;5033687;28;20368;-67
2022/04/23 00:40:24;;;;;;;12.65;8.02;;;11.40;99.90;;;;;;5033318;28;20399;-67
2022/04/23 00:42:53;;;;;;;12.27;8.93;;;11.40;99.90;;;;;;5033378;28;20037;-67
2022/04/23 00:45:20;;;;;;;17.80;9.40;;;11.30;99.90;;;;;;5033557;28;20060;-67
2022/04/23 00:47:46;;;;;;;11.43;8.73;;;11.40;99.90;;;;;;5032360;28;20045;-67
2022/04/23 00:50:12;;;;;;;11.75;8.77;;;11.30;99.90;;;;;;5015179;28;20116;-67
2022/04/23 00:52:38;;;;;;;14.18;10.00;;;11.30;99.90;;;;;;5033306;28;20499;-67
2022/04/23 00:55:05;;;;;;;14.25;8.77;;;11.30;99.90;;;;;;5033221;28;20121;-68
2022/04/23 00:57:32;;;;;;;15.55;9.30;;;11.30;99.90;;;;;;5033100;28;20112;-67
2022/04/23 01:00:00;;;;;;;13.57;9.40;;;11.20;99.90;;;;;;5032982;28;20541;-67
2022/04/23 01:02:26;;;;;;;17.48;8.98;;;11.20;99.90;;;;;;5033347;28;20033;-67
2022/04/23 01:04:54;;;;;;;16.20;8.90;;;11.10;99.90;;;;;;5033101;28;20633;-67
2022/04/23 01:07:20;;;;;;;13.77;9.43;;;11.10;99.90;;;;;;5033073;28;20546;-67
2022/04/23 01:09:48;;;;;;;14.07;9.60;;;11.10;99.90;;;;;;5032926;28;20049;-67
2022/04/23 01:12:13;;;;;;;16.52;9.73;;;11.10;99.90;;;;;;5032682;28;20111;-67
2022/04/23 01:15:05;;;;;;;14.30;10.38;;;11.10;99.90;;;;;;5033194;28;20104;-67
2022/04/23 01:17:31;;;;;;;17.65;10.30;;;11.10;99.90;;;;;;5032724;28;20037;-67
2022/04/23 01:19:57;;;;;;;15.25;9.73;;;11.00;99.90;;;;;;5032579;28;20064;-67
2022/04/23 01:22:26;;;;;;;15.13;11.20;;;11.00;99.90;;;;;;5032682;28;20507;-68
2022/04/23 01:24:54;;;;;;;21.40;11.40;;;10.90;99.90;;;;;;5032875;28;20036;-67
2022/04/23 01:27:25;;;;;;;14.80;10.45;;;10.90;99.90;;;;;;5032869;28;20383;-67
2022/04/23 01:29:51;;;;;;;17.60;10.30;;;10.90;99.90;;;;;;5032824;28;20049;-67
2022/04/23 01:32:16;;;;;;;13.45;9.55;;;10.90;99.90;;;;;;5031229;28;20041;-67
2022/04/23 01:34:42;;;;;;;13.90;10.10;;;10.80;99.90;;;;;;5032615;28;20042;-67
2022/04/23 01:37:08;;;;;;;19.58;11.23;;;10.70;99.90;;;;;;5032202;28;20446;-67
2022/04/23 01:39:34;;;;;;;15.45;10.95;;;10.80;99.90;;;;;;5032549;28;20077;-67
2022/04/23 01:41:59;;;;;;;15.15;10.55;;;10.70;99.90;;;;;;5032228;28;20691;-67
2022/04/23 01:44:25;;;;;;;18.48;11.63;;;10.70;99.90;;;;;;5032443;28;20042;-67
2022/04/23 01:46:51;;;;;;;12.60;9.95;;;10.70;99.90;;;;;;5031498;28;20116;-67
2022/04/23 01:49:16;;;;;;;14.23;9.88;;;10.70;99.90;;;;;;5032357;28;20068;-67
2022/04/23 01:51:42;;;;;;;12.95;10.52;;;10.70;99.90;;;;;;5032241;28;20511;-67
2022/04/23 01:54:07;;;;;;;16.95;11.00;;;10.70;99.90;;;;;;5032606;28;20048;-67
2022/04/23 01:56:33;;;;;;;15.90;11.40;;;10.70;99.90;;;;;;5032185;28;20406;-67
2022/04/23 01:58:58;;;;;;;16.88;10.50;;;10.70;99.90;;;;;;5032242;28;20038;-67
2022/04/23 02:01:24;;;;;;;17.70;11.93;;;10.70;99.90;;;;;;5031917;28;20047;-67
2022/04/23 02:03:51;;;;;;;18.38;10.52;;;10.70;99.90;;;;;;5032056;28;20507;-67
2022/04/23 02:06:17;;;;;;;17.48;11.20;;;10.60;99.90;;;;;;5031910;28;20049;-67
2022/04/23 02:08:43;;;;;;;16.50;11.25;;;10.50;99.90;;;;;;5032169;28;20037;-67
2022/04/23 02:11:08;;;;;;;17.10;11.35;;;10.60;99.90;;;;;;5031883;28;20037;-67
2022/04/23 02:13:34;;;;;;;17.40;11.20;;;10.60;99.90;;;;;;5032045;28;20033;-67
2022/04/23 02:16:03;;;;;;;19.00;12.02;;;10.50;99.90;;;;;;5031922;28;20564;-67
2022/04/23 02:18:30;;;;;;;15.23;11.07;;;10.50;99.90;;;;;;5030627;28;20049;-67
2022/04/23 02:20:55;;;;;;;15.80;11.85;;;10.40;99.90;;;;;;5031479;28;20048;-67
2022/04/23 02:23:21;;;;;;;19.70;13.43;;;10.50;99.90;;;;;;5032022;28;20033;-67
2022/04/23 02:25:46;;;;;;;15.85;11.82;;;10.50;99.90;;;;;;5031907;28;20033;-67
2022/04/23 02:28:12;;;;;;;18.90;11.77;;;10.40;99.90;;;;;;5031862;28;20065;-67
2022/04/23 02:30:38;;;;;;;17.55;12.65;;;10.50;99.90;;;;;;5031764;28;20474;-67
2022/04/23 02:33:04;;;;;;;17.35;12.40;;;10.40;99.90;;;;;;5031889;28;20033;-67
2022/04/23 02:35:34;;;;;;;18.80;11.55;;;10.30;99.90;;;;;;5031792;28;20091;-67
2022/04/23 02:38:02;;;;;;;16.80;11.73;;;10.30;99.90;;;;;;5031727;28;20499;-67
2022/04/23 02:40:31;;;;;;;18.00;12.57;;;10.40;99.90;;;;;;5031694;28;20495;-67
2022/04/23 02:42:57;;;;;;;18.10;12.30;;;10.30;99.90;;;;;;5031983;28;20443;-67
2022/04/23 02:45:25;;;;;;;21.08;13.20;;;10.30;99.90;;;;;;5031569;28;20049;-67
2022/04/23 02:47:55;;;;;;;18.08;12.73;;;10.20;99.90;;;;;;5031484;28;20121;-67
2022/04/23 02:50:27;;;;;;;17.58;12.73;;;10.20;99.90;;;;;;5031594;28;20057;-67
2022/04/23 02:52:55;;;;;;;18.27;12.25;;;10.10;99.90;;;;;;5030336;28;20095;-67
2022/04/23 02:55:22;;;;;;;18.80;12.43;;;10.10;99.90;;;;;;5031468;28;20526;-67
2022/04/23 02:57:48;;;;;;;16.52;12.52;;;10.20;99.90;;;;;;5032837;28;20033;-67
2022/04/23 03:00:14;;;;;;;16.58;11.57;;;10.20;99.90;;;;;;5035222;28;20041;-67
2022/04/23 03:02:40;;;;;;;17.85;12.18;;;10.20;99.90;;;;;;5035306;28;20075;-67
2022/04/23 03:05:08;;;;;;;16.83;12.13;;;10.20;99.90;;;;;;5035542;28;20107;-67
2022/04/23 03:07:35;;;;;;;20.40;12.25;;;10.20;99.90;;;;;;5034375;28;20041;-67
2022/04/23 03:10:04;;;;;;;16.63;12.00;;;10.20;99.90;;;;;;5033647;28;20057;-67
2022/04/23 03:12:30;;;;;;;15.57;11.30;;;10.10;99.90;;;;;;5035239;28;20526;-67
2022/04/23 03:14:56;;;;;;;16.52;11.45;;;10.10;99.90;;;;;;5017316;28;20052;-67
2022/04/23 03:17:21;;;;;;;17.65;11.38;;;10.10;99.90;;;;;;5035004;28;20434;-67
2022/04/23 03:19:47;;;;;;;18.20;12.25;;;10.10;99.90;;;;;;5035182;28;20049;-67
2022/04/23 03:22:16;;;;;;;17.10;11.80;;;10.00;99.90;;;;;;5034845;28;20060;-67
2022/04/23 03:24:42;;;;;;;17.65;11.85;;;10.10;99.90;;;;;;5035119;28;20048;-67
2022/04/23 03:27:07;;;;;;;15.02;11.50;;;10.10;99.90;;;;;;5034835;28;20403;-67
2022/04/23 03:29:34;;;;;;;13.98;10.60;;;10.10;99.90;;;;;;5034918;28;20038;-67
2022/04/23 03:31:59;;;;;;;14.93;11.50;;;10.10;99.90;;;;;;5034680;28;20376;-67
2022/04/23 03:34:25;;;;;;;16.88;12.25;;;10.00;99.90;;;;;;5033924;28;20063;-67
2022/04/23 03:36:51;;;;;;;14.02;11.23;;;10.00;99.90;;;;;;5034625;28;20037;-67
2022/04/23 03:39:16;;;;;;;14.52;11.43;;;10.10;99.90;;;;;;5034968;28;20091;-67
2022/04/23 03:41:42;;;;;;;16.30;12.50;;;10.00;99.90;;;;;;5034453;28;20495;-66
2022/04/23 03:44:07;;;;;;;19.52;11.30;;;10.00;99.90;;;;;;5034532;28;20124;-67
2022/04/23 03:46:33;;;;;;;16.45;11.05;;;10.00;99.90;;;;;;5034459;28;20046;-66
2022/04/23 03:48:58;;;;;;;18.15;11.02;;;9.90;99.90;;;;;;5034688;28;20034;-66
2022/04/23 03:51:24;;;;;;;16.13;12.10;;;9.90;99.90;;;;;;5034305;28;20055;-66
2022/04/23 03:53:50;;;;;;;16.52;11.45;;;9.90;99.90;;;;;;5034500;28;20584;-66
2022/04/23 03:56:16;;;;;;;13.65;10.88;;;9.90;99.90;;;;;;5034375;28;20037;-67
2022/04/23 03:58:41;;;;;;;18.63;11.65;;;9.90;99.90;;;;;;5034367;28;20048;-67
2022/04/23 04:01:07;;;;;;;14.75;11.85;;;9.80;99.90;;;;;;5034198;28;20065;-67
2022/04/23 04:03:33;;;;;;;14.00;10.45;;;9.90;99.90;;;;;;5034503;28;20558;-67
2022/04/23 04:05:59;;;;;;;15.82;12.10;;;9.80;99.90;;;;;;5034339;28;20038;-66
2022/04/23 04:08:25;;;;;;;14.63;10.95;;;9.80;99.90;;;;;;5034072;28;20415;-66
2022/04/23 04:10:50;;;;;;;14.98;10.77;;;9.80;99.90;;;;;;5033102;28;20042;-67
2022/04/23 04:13:16;;;;;;;16.25;11.73;;;9.80;99.90;;;;;;5033991;28;20530;-67
2022/04/23 04:15:45;;;;;;;15.68;12.15;;;9.80;99.90;;;;;;5034142;28;20037;-67
2022/04/23 04:18:12;;;;;;;15.27;11.10;;;9.80;99.90;;;;;;5034018;28;20128;-67
2022/04/23 04:20:39;;;;;;;16.02;12.15;;;9.80;99.90;;;;;;5033729;28;20045;-67
2022/04/23 04:23:05;;;;;;;15.57;12.23;;;9.70;99.90;;;;;;5033923;28;20041;-67
2022/04/23 04:25:31;;;;;;;15.80;12.38;;;9.70;99.90;;;;;;5033798;28;20465;-67
2022/04/23 04:27:59;;;;;;;18.83;12.15;;;9.70;99.90;;;;;;5033705;28;20037;-66
2022/04/23 04:30:25;;;;;;;17.05;12.85;;;9.60;99.90;;;;;;5033653;28;20050;-67
2022/04/23 04:32:51;;;;;;;19.40;11.65;;;9.70;99.90;;;;;;5033931;28;20045;-67
2022/04/23 04:35:16;;;;;;;13.68;11.32;;;9.60;99.90;;;;;;5032216;28;20448;-67
2022/04/23 04:37:42;;;;;;;14.38;12.13;;;9.60;99.90;;;;;;5054372;23;20050;-74
2022/04/23 04:40:08;;;;;;;19.70;11.88;;;9.50;99.90;;;;;;5064733;28;20403;-74
2022/04/23 04:42:34;;;;;;;15.13;11.43;;;9.50;99.90;;;;;;5033442;28;20124;-75
2022/04/23 04:45:00;;;;;;;16.48;11.95;;;9.50;99.90;;;;;;5033482;28;20041;-74
2022/04/23 04:47:26;;;;;;;15.60;11.88;;;9.50;99.90;;;;;;5030795;28;20176;-74
2022/04/23 04:49:52;;;;;;;19.85;12.60;;;9.50;99.90;;;;;;5032317;28;20136;-75
2022/04/23 04:52:17;;;;;;;17.10;11.60;;;9.40;99.90;;;;;;5031917;28;20491;-74
2022/04/23 04:54:43;;;;;;;14.20;11.40;;;9.40;99.90;;;;;;5031909;28;20495;-75
2022/04/23 04:57:08;;;;;;;14.32;11.75;;;9.50;99.90;;;;;;5031837;28;20097;-75
2022/04/23 04:59:35;;;;;;;14.68;12.23;;;9.50;99.90;;;;;;5033283;28;20033;-74
2022/04/23 05:02:01;;;;;;;13.90;11.23;;;9.60;99.90;;;;;;5031925;28;20033;-75
2022/04/23 05:04:27;;;;;;;16.75;13.15;;;9.70;99.90;;;;;;5033105;28;20045;-75
2022/04/23 05:06:53;;;;;;;15.02;12.27;;;9.80;99.90;;;;;;5032956;28;20037;-75
2022/04/23 05:09:18;;;;;;;13.63;11.40;;;9.80;99.90;;;;;;5031578;28;20462;-74
2022/04/23 05:11:44;;;;;;;16.17;11.63;;;9.80;99.90;;;;;;5031657;28;20041;-74
2022/04/23 05:14:09;;;;;;;13.93;11.32;;;9.90;99.90;;;;;;5022860;28;20484;-73
2022/04/23 05:16:35;;;;;;;11.88;10.55;;;10.00;99.90;;;;;;5011866;28;20038;-73
2022/04/23 05:19:01;;;;;;;15.02;10.98;;;10.10;99.90;;;;;;5011763;28;20034;-73
2022/04/23 05:21:26;;;;;;;13.10;10.77;;;10.20;99.90;;;;;;4995028;28;20038;-73
2022/04/23 05:23:52;;;;;;;13.77;11.07;;;10.30;99.90;;;;;;5011911;28;20129;-73
2022/04/23 05:26:18;;;;;;;14.73;11.02;;;10.40;99.90;;;;;;5013095;28;20082;-73
2022/04/23 05:28:44;;;;;;;14.27;10.98;;;10.40;99.90;;;;;;5011880;28;20077;-74
2022/04/23 05:31:09;;;;;;;13.65;10.63;;;10.50;99.90;;;;;;5011286;28;20508;-74
2022/04/23 05:33:35;;;;;;;14.75;11.73;;;10.60;99.90;;;;;;4995256;28;20041;-73
2022/04/23 05:36:06;;;;;;;14.40;10.95;;;10.70;99.90;;;;;;5011449;28;20042;-73
2022/04/23 05:38:34;;;;;;;13.23;9.88;;;10.70;99.90;;;;;;5011493;28;20042;-73
2022/04/23 05:41:00;;;;;;;16.63;11.30;;;10.90;99.90;;;;;;5012309;28;20521;-73
2022/04/23 05:43:26;;;;;;;12.50;10.57;;;11.10;99.90;;;;;;5011325;28;20046;-73
2022/04/23 05:45:51;;;;;;;15.98;11.63;;;11.10;99.90;;;;;;5012690;28;20503;-73
2022/04/23 05:48:17;;;;;;;11.68;10.32;;;11.10;99.90;;;;;;5011556;28;20034;-73
2022/04/23 05:50:42;;;;;;;14.73;10.77;;;11.10;99.90;;;;;;5012219;28;20038;-72
2022/04/23 05:53:08;;;;;;;13.70;10.23;;;11.30;99.90;;;;;;5012394;28;20050;-73
2022/04/23 05:55:35;;;;;;;11.35;9.60;;;11.40;99.90;;;;;;5012445;28;20048;-73
2022/04/23 05:58:00;;;;;;;13.57;10.18;;;11.40;99.90;;;;;;5011082;28;20049;-74
2022/04/23 06:00:26;;;;;;;14.88;10.02;;;11.30;99.90;;;;;;5012160;28;20130;-74
2022/04/23 06:02:51;;;;;;;14.85;10.27;;;11.30;99.90;;;;;;5012428;28;20038;-74
2022/04/23 06:05:17;;;;;;;12.50;10.73;;;11.40;99.90;;;;;;5011163;28;20033;-74
2022/04/23 06:07:42;;;;;;;13.60;11.27;;;11.50;99.90;;;;;;5010909;28;20064;-73
2022/04/23 06:10:08;;;;;;;12.50;10.25;;;11.60;99.90;;;;;;5012060;28;20042;-73
2022/04/23 06:12:35;;;;;;;13.30;10.52;;;11.80;99.90;;;;;;5011073;28;20037;-74
2022/04/23 06:15:00;;;;;;;11.93;10.25;;;11.60;99.90;;;;;;5010976;28;20045;-74
2022/04/23 06:17:27;;;;;;;12.18;10.02;;;11.80;99.90;;;;;;5010915;28;20049;-74
2022/04/23 06:19:55;;;;;;;12.32;10.45;;;12.00;99.50;;;;;;4994379;28;20042;-74
2022/04/23 06:22:21;;;;;;;13.27;10.30;;;12.00;98.60;;;;;;5012050;28;20075;-74
2022/04/23 06:24:46;;;;;;;13.70;10.82;;;12.00;98.60;;;;;;5012265;28;20415;-74
2022/04/23 06:27:12;;;;;;;12.18;10.07;;;12.10;98.50;;;;;;5010717;28;20038;-74
2022/04/23 06:29:39;;;;;;;12.40;10.23;;;12.20;97.50;;;;;;5011968;28;20474;-74
2022/04/23 06:32:05;;;;;;;13.32;11.10;;;12.10;97.00;;;;;;5011275;28;20084;-73
2022/04/23 06:34:30;;;;;;;17.13;12.32;;;12.30;96.50;;;;;;5010685;28;20037;-73
2022/04/23 06:36:56;;;;;;;13.52;11.13;;;12.10;97.70;;;;;;5010370;28;20041;-74
2022/04/23 06:39:21;;;;;;;13.60;11.57;;;12.30;96.60;;;;;;5010697;28;20046;-74
2022/04/23 06:41:47;;;;;;;13.98;10.63;;;12.50;95.40;;;;;;5011768;28;20659;-74
2022/04/23 06:44:13;;;;;;;15.02;12.20;;;12.60;94.60;;;;;;5010551;28;20488;-74
2022/04/23 06:46:38;;;;;;;14.40;10.98;;;12.60;93.80;;;;;;5010471;28;20049;-74
2022/04/23 06:49:07;;;;;;;15.68;10.75;;;12.70;92.70;;;;;;5010455;28;20096;-74
2022/04/23 06:51:33;;;;;;;12.40;9.90;;;12.80;92.70;;;;;;4994033;28;20056;-74
2022/04/23 06:53:59;;;;;;;12.70;10.02;;;12.90;92.30;;;;;;4994299;28;20038;-73
2022/04/23 06:56:25;;;;;;;15.63;10.65;;;13.00;91.60;;;;;;5011551;28;20068;-74
2022/04/23 06:58:51;;;;;;;14.00;10.68;;;12.80;90.90;;;;;;5010410;28;20042;-73
2022/04/23 07:01:17;;;;;;;13.48;9.93;;;12.90;90.60;;;;;;4994152;28;20418;-73
2022/04/23 07:03:43;;;;;;;11.10;9.90;;;13.10;88.70;;;;;;5010411;28;20053;-73
2022/04/23 07:06:08;;;;;;;12.52;10.23;;;13.20;87.50;;;;;;5010602;28;20396;-73
2022/04/23 07:08:34;;;;;;;13.73;10.90;;;13.30;85.70;;;;;;5010455;28;20038;-73
2022/04/23 07:10:59;;;;;;;12.05;10.60;;;13.40;84.70;;;;;;5010109;28;20121;-74
2022/04/23 07:13:28;;;;;;;12.88;10.80;;;13.30;83.30;;;;;;5011753;28;20444;-74
2022/04/23 07:15:54;;;;;;;12.52;10.45;;;13.30;82.30;;;;;;5013211;28;20084;-74
2022/04/23 07:18:19;;;;;;;14.43;11.15;;;13.40;82.30;;;;;;5025742;28;20037;-74
2022/04/23 07:20:45;;;;;;;16.17;10.38;;;13.50;82.50;;;;;;5022020;28;20432;-74
2022/04/23 07:25:54;;;;;;;10.55;9.43;;;13.60;79.50;;;;;;5011610;28;20050;-74
2022/04/23 07:28:20;;;;;;;13.63;10.38;;;13.90;79.30;;;;;;5010419;28;20046;-73
2022/04/23 07:30:46;;;;;;;12.55;10.40;;;13.90;78.10;;;;;;5010024;28;20042;-73
2022/04/23 07:37:28;;;;;;;14.23;10.65;;;14.00;78.00;;;;;;4994056;28;20046;-71
2022/04/23 07:38:42;;;;;;;13.65;10.05;;;14.10;73.00;;;;;;5011432;28;20061;-73
2022/04/23 07:41:09;;;;;;;10.63;9.25;;;14.40;73.20;;;;;;5009781;28;20042;-73
2022/04/23 07:43:34;;;;;;;11.63;10.38;;;14.40;71.70;;;;;;5010308;28;20466;-74
2022/04/23 07:46:00;;;;;;;12.85;10.35;;;14.30;70.90;;;;;;5012941;28;20038;-73
2022/04/23 07:48:25;;;;;;;12.15;10.85;;;14.30;70.80;;;;;;5013633;28;20550;-73
2022/04/23 07:50:51;;;;;;;12.88;10.82;;;14.40;69.70;;;;;;5013438;28;20061;-72
2022/04/23 07:53:17;;;;;;;12.15;10.77;;;14.40;68.50;;;;;;5014936;28;20508;-73
2022/04/23 07:55:42;;;;;;;14.30;10.30;;;14.30;68.50;;;;;;5013334;28;20076;-73
2022/04/23 07:58:11;;;;;;;11.00;9.75;;;14.40;68.50;;;;;;5014324;28;20046;-73
2022/04/23 08:00:38;;;;;;;10.98;9.35;;;14.50;68.40;;;;;;5014377;28;20104;-72
2022/04/23 08:03:04;;;;;;;14.52;10.77;;;14.80;67.60;;;;;;5013413;28;20534;-72
2022/04/23 08:05:30;;;;;;;11.77;10.57;;;14.80;65.50;;;;;;5013391;28;20034;-74
2022/04/23 08:07:56;;;;;;;11.35;10.15;;;14.80;64.80;;;;;;5013363;28;20503;-74
2022/04/23 08:10:22;;;;;;;15.63;10.05;;;14.80;64.70;;;;;;5014011;28;20041;-72
2022/04/23 08:12:48;;;;;;;10.70;9.20;;;15.00;64.80;;;;;;5013038;28;20491;-73
2022/04/23 08:15:13;;;;;;;11.48;10.35;;;15.20;63.40;;;;;;5013325;28;20412;-74
2022/04/23 08:17:39;;;;;;;13.55;10.85;;;15.10;62.50;;;;;;5012988;28;20483;-74
2022/04/23 08:20:06;;;;;;;12.60;9.82;;;15.10;62.30;;;;;;4996419;28;20042;-73
2022/04/23 08:22:31;;;;;;;11.18;10.07;;;15.20;62.10;;;;;;4996417;28;20042;-73
2022/04/23 08:24:57;;;;;;;11.60;9.40;;;15.30;61.30;;;;;;5012729;28;20042;-72
2022/04/23 08:27:23;;;;;;;13.25;10.13;;;15.40;61.10;;;;;;4996226;28;20042;-73
2022/04/23 08:32:34;;;;;;;11.52;10.23;;;15.50;59.70;;;;;;5012599;28;20045;-72
2022/04/23 08:35:00;;;;;;;11.38;10.18;;;15.50;59.90;;;;;;5012631;28;20034;-73
2022/04/23 08:37:25;;;;;;;12.30;10.25;;;15.40;58.90;;;;;;5012366;28;20055;-74
2022/04/23 08:39:51;;;;;;;12.77;10.07;;;15.40;59.30;;;;;;4996044;28;20041;-73
2022/04/23 08:42:18;;;;;;;15.10;10.25;;;15.40;59.20;;;;;;4995946;28;20076;-73
2022/04/23 08:44:44;;;;;;;12.68;9.85;;;15.50;59.00;;;;;;5012620;28;20092;-73
2022/04/23 08:47:11;;;;;;;11.85;9.70;;;15.50;58.20;;;;;;5012292;28;20038;-73
2022/04/23 08:49:40;;;;;;;15.20;10.15;;;15.70;58.40;;;;;;5012134;28;20061;-73
2022/04/23 08:52:17;;;;;;;12.60;9.68;;;15.80;58.00;;;;;;5011803;28;20121;-72
2022/04/23 08:54:43;;;;;;;11.38;9.70;;;15.70;57.50;;;;;;5012009;28;20050;-73
2022/04/23 08:57:09;;;;;;;10.88;9.77;;;15.90;58.10;;;;;;5012010;28;20038;-74
2022/04/23 08:59:35;;;;;;;12.43;10.05;;;15.80;56.30;;;;;;5012199;28;20129;-74
2022/04/23 09:02:01;;;;;;;12.60;9.82;;;15.70;56.10;;;;;;5011886;28;20034;-74
2022/04/23 09:04:28;;;;;;;13.10;9.77;;;15.90;56.50;;;;;;4995634;28;20108;-73
2022/04/23 09:06:54;;;;;;;14.73;11.32;;;16.00;56.90;;;;;;5022242;28;20046;-73
2022/04/23 09:09:20;;;;;;;11.90;10.57;;;15.70;56.40;;;;;;5020869;28;20392;-75
2022/04/23 09:11:55;;;;;;;12.27;9.70;;;15.90;56.50;;;;;;5021451;28;20037;-74
2022/04/23 09:14:29;;;;;;;12.90;10.30;;;15.80;56.20;;;;;;5023569;28;20060;-74
2022/04/23 09:25:41;;;;;;;13.38;9.85;;;15.90;53.80;;;;;;5020102;28;20447;-73
2022/04/23 09:28:14;;;;;;;13.20;9.15;;;15.80;52.90;;;;;;5007472;28;20045;-74
2022/04/23 09:30:40;;;;;;;11.77;10.60;;;15.90;53.70;;;;;;5022426;28;20033;-74
2022/04/23 09:33:05;;;;;;;11.52;10.13;;;15.70;53.40;;;;;;5022697;28;20121;-74
2022/04/23 09:35:31;;;;;;;12.85;10.68;;;15.90;53.80;;;;;;5004949;28;20099;-74
2022/04/23 09:38:13;;;;;;;12.23;9.68;;;15.80;52.80;;;;;;5020371;28;20041;-73
2022/04/23 09:40:39;;;;;;;11.02;9.40;;;15.80;52.50;;;;;;5020637;28;20038;-75
2022/04/23 09:43:06;;;;;;;11.70;9.57;;;15.90;52.50;;;;;;5004132;28;20511;-75
2022/04/23 09:45:34;;;;;;;13.18;9.98;;;16.00;53.40;;;;;;5011099;28;20042;-74
2022/04/23 09:48:06;;;;;;;10.25;8.90;;;16.00;53.10;;;;;;4993826;28;20042;-73
2022/04/23 09:50:38;;;;;;;10.75;9.25;;;16.10;52.70;;;;;;5010862;28;20403;-72
2022/04/23 09:53:17;;;;;;;11.70;8.98;;;16.20;51.80;;;;;;5010962;28;20072;-73
2022/04/23 09:55:45;;;;;;;13.10;11.18;;;16.20;51.80;;;;;;5011080;28;20077;-72
2022/04/23 09:58:12;;;;;;;20.38;10.45;;;16.20;51.80;;;;;;5012411;28;20049;-73
2022/04/23 10:00:45;;;;;;;11.85;9.35;;;16.00;51.40;;;;;;5011245;28;20466;-74
2022/04/23 10:03:12;;;;;;;14.20;10.45;;;16.10;51.60;;;;;;5014971;28;20088;-72
2022/04/23 10:05:45;;;;;;;11.93;10.73;;;16.10;51.30;;;;;;5016264;28;20088;-71
2022/04/23 10:08:15;;;;;;;12.60;9.95;;;16.10;50.70;;;;;;5012038;28;20034;-71
2022/04/23 10:10:51;;;;;;;12.10;10.20;;;16.00;51.20;;;;;;5011387;28;20049;-75
2022/04/23 10:13:18;;;;;;;13.60;9.90;;;16.00;51.40;;;;;;5011072;28;20554;-74
2022/04/23 10:15:46;;;;;;;12.27;10.40;;;15.90;51.80;;;;;;5011290;28;20083;-75
2022/04/23 10:18:13;;;;;;;11.35;10.23;;;15.90;51.50;;;;;;5010844;28;20053;-74
2022/04/23 10:20:40;;;;;;;12.55;10.57;;;15.80;52.00;;;;;;5010620;28;20508;-75
2022/04/23 10:23:28;;;;;;;12.70;10.43;;;15.80;51.90;;;;;;5010946;28;20049;-74
2022/04/23 10:26:28;;;;;;;12.60;9.30;;;15.90;52.40;;;;;;5010812;28;20500;-74
2022/04/23 10:28:54;;;;;;;10.63;9.52;;;16.10;52.10;;;;;;5011146;28;20049;-75
2022/04/23 10:31:19;;;;;;;12.55;9.85;;;16.00;50.50;;;;;;5010812;28;20041;-75
2022/04/23 10:33:51;;;;;;;12.18;10.25;;;16.00;50.30;;;;;;5011323;28;20107;-74
2022/04/23 10:36:18;;;;;;;11.80;10.27;;;16.00;50.00;;;;;;5033183;23;20069;-71
2022/04/23 10:38:51;;;;;;;11.05;9.57;;;16.00;50.60;;;;;;5011966;28;20056;-69
2022/04/23 10:41:21;;;;;;;13.27;10.43;;;16.10;51.20;;;;;;5011415;28;20091;-69
2022/04/23 10:43:59;;;;;;;11.30;10.10;;;16.10;50.90;;;;;;5010261;28;20254;-67
2022/04/23 10:46:36;;;;;;;11.38;9.18;;;16.10;49.80;;;;;;5011203;28;20034;-67
2022/04/23 10:49:17;;;;;;;12.27;10.65;;;16.20;50.20;;;;;;5012045;28;20042;-67
2022/04/23 10:51:46;;;;;;;15.65;9.95;;;16.30;50.00;;;;;;5011659;28;20052;-67
2022/04/23 10:54:12;;;;;;;10.38;9.27;;;16.40;48.90;;;;;;5011860;28;20041;-67
2022/04/23 10:56:38;;;;;;;14.02;9.70;;;16.40;48.50;;;;;;5010510;28;20100;-68
2022/04/23 10:59:03;;;;;;;12.00;9.23;;;16.50;48.60;;;;;;5011715;28;20038;-67
2022/04/23 11:01:30;;;;;;;10.27;9.18;;;16.50;48.80;;;;;;5011389;28;20049;-67
2022/04/23 11:03:59;;;;;;;11.32;8.65;;;16.50;48.10;;;;;;5011855;28;20072;-67
2022/04/23 11:12:19;;;;;;;13.13;8.88;;;16.60;47.10;;;;;;5010109;28;20041;-67
2022/04/23 11:14:47;;;;;;;9.60;8.05;;;16.50;46.90;;;;;;5010336;28;20042;-67
2022/04/23 11:17:23;;;;;;;10.02;8.85;;;16.50;46.60;;;;;;5010249;28;20439;-67
2022/04/23 11:19:55;;;;;;;13.65;8.90;;;16.60;45.70;;;;;;5013289;28;20117;-68
2022/04/23 11:22:21;;;;;;;10.40;9.40;;;16.60;46.30;;;;;;5015235;28;20041;-67
2022/04/23 11:24:48;;;;;;;11.00;8.07;;;16.60;46.80;;;;;;5015375;28;20077;-67
2022/04/23 11:27:32;;;;;;;9.95;8.95;;;16.70;47.10;;;;;;4997494;28;20045;-67
2022/04/23 11:29:58;;;;;;;11.90;9.52;;;16.80;46.60;;;;;;4997315;28;20041;-68
2022/04/23 11:32:28;;;;;;;12.50;9.50;;;16.70;46.50;;;;;;5015076;28;20090;-67
2022/04/23 11:34:58;;;;;;;10.63;8.98;;;16.70;46.60;;;;;;5012160;28;20034;-70
2022/04/23 11:37:31;;;;;;;12.13;10.40;;;16.80;46.80;;;;;;5002314;28;20554;-69
2022/04/23 11:40:28;;;;;;;11.40;8.23;;;16.70;46.10;;;;;;5001527;28;20117;-67
2022/04/23 11:42:54;;;;;;;11.55;8.52;;;16.70;45.90;;;;;;4993684;28;20111;-70
2022/04/23 11:45:20;;;;;;;9.98;8.80;;;16.70;46.00;;;;;;4995169;28;20046;-70
2022/04/23 11:47:46;;;;;;;9.43;8.43;;;16.60;46.00;;;;;;4993804;28;20496;-69
2022/04/23 11:50:21;;;;;;;10.93;8.45;;;16.70;46.00;;;;;;4993819;28;20041;-67
2022/04/23 11:53:09;;;;;;;12.07;8.68;;;16.80;45.60;;;;;;4993774;28;20085;-68
2022/04/23 11:55:35;;;;;;;14.65;8.65;;;16.70;46.20;;;;;;4993860;28;20061;-68
2022/04/23 11:58:02;;;;;;;10.48;8.43;;;16.80;46.10;;;;;;4994972;28;20038;-67
2022/04/23 12:00:32;;;;;;;11.43;9.50;;;16.90;45.60;;;;;;4993439;28;20073;-68
2022/04/23 12:02:59;;;;;;;11.88;8.95;;;16.90;44.90;;;;;;4995134;28;20077;-67
2022/04/23 12:05:29;;;;;;;10.75;8.02;;;16.70;45.10;;;;;;4994852;28;20046;-67
2022/04/23 12:07:59;;;;;;;8.90;7.63;;;16.80;45.40;;;;;;5003804;28;20038;-67
2022/04/23 12:10:29;;;;;;;9.52;7.90;;;17.00;45.80;;;;;;5014296;28;20053;-68
2022/04/23 12:13:18;;;;;;;10.27;7.65;;;17.00;44.70;;;;;;5014394;28;20080;-67
2022/04/23 12:15:46;;;;;;;13.00;7.50;;;17.00;44.40;;;;;;5013813;28;20050;-67
2022/04/23 12:18:17;;;;;;;10.13;7.88;;;17.00;44.40;;;;;;5014040;28;20404;-68
2022/04/23 12:20:43;;;;;;;8.90;7.13;;;17.00;43.30;;;;;;5014097;28;20093;-67
2022/04/23 12:23:09;;;;;;;7.95;7.13;;;17.00;43.70;;;;;;5014161;28;20053;-67
2022/04/23 12:25:36;;;;;;;7.70;6.95;;;17.10;43.70;;;;;;5014241;28;20038;-67
2022/04/23 12:42:04;;;;;;;12.55;7.32;;;17.20;42.00;;;;;;4994569;28;20493;-67
2022/04/23 12:44:36;;;;;;;9.43;7.22;;;17.10;41.10;;;;;;4994230;28;20455;-67
2022/04/23 12:47:04;;;;;;;8.10;6.75;;;17.20;41.20;;;;;;4993843;28;20050;-66
2022/04/23 12:49:49;;;;;;;10.27;7.18;;;17.20;41.00;;;;;;4996320;28;20050;-67
2022/04/23 12:52:27;;;;;;;11.13;7.07;;;17.10;41.40;;;;;;4992471;28;20038;-67
2022/04/23 12:55:18;;;;;;;9.27;6.97;;;17.10;41.60;;;;;;5005065;28;20145;-67
2022/04/23 12:58:02;;;;;;;8.60;5.80;;;17.20;40.60;;;;;;5013479;28;20505;-67
2022/04/23 13:00:28;;;;;;;8.77;7.22;;;17.30;41.20;;;;;;5011880;28;20129;-66
2022/04/23 13:02:58;;;;;;;7.72;6.93;;;17.20;41.00;;;;;;5007239;28;20523;-67
2022/04/23 13:05:25;;;;;;;11.88;9.57;;;17.20;41.20;;;;;;5002759;28;20042;-67
2022/04/23 13:10:36;;;;;;;7.75;6.22;;;17.40;40.00;;;;;;4999140;28;20046;-67
2022/04/23 13:13:02;;;;;;;10.50;7.40;;;17.40;38.90;;;;;;5001823;28;20515;-67
2022/04/23 13:15:29;;;;;;;9.25;6.15;;;17.60;39.20;;;;;;5003516;28;20038;-67